sensor_id;sensor_type;location;lat;lon;timestamp;temperature;humidity
22321;DHT22;11328;53.928;18.522;2024-02-21T00:00:00;7.10;99.90
22321;DHT22;11328;53.928;18.522;2024-02-21T00:02:27;7.10;99.90
22321;DHT22;11328;53.928;18.522;2024-02-21T00:04:54;7.10;99.90
22321;DHT22;11328;53.928;18.522;2024-02-21T00:07:21;7.20;99.90
22321;DHT22;11328;53.928;18.522;2024-02-21T00:09:48;7.20;99.90
22321;DHT22;11328;53.928;18.522;2024-02-21T00:12:15;7.20;99.90
22321;DHT22;11328;53.928;18.522;2024-02-21T00:14:43;7.20;99.90
22321;DHT22;11328;53.928;18.522;2024-02-21T00:17:10;7.20;99.90
22321;DHT22;11328;53.928;18.522;2024-02-21T00:19:37;7.10;99.90
22321;DHT22;11328;53.928;18.522;2024-02-21T00:22:04;7.10;99.90
22321;DHT22;11328;53.928;18.522;2024-02-21T00:24:32;7.20;99.90
22321;DHT22;11328;53.928;18.522;2024-02-21T00:26:59;7.20;99.90
22321;DHT22;11328;53.928;18.522;2024-02-21T00:29:26;7.20;99.90
22321;DHT22;11328;53.928;18.522;2024-02-21T00:31:54;7.20;99.90
22321;DHT22;11328;53.928;18.522;2024-02-21T00:34:21;7.20;99.90
22321;DHT22;11328;53.928;18.522;2024-02-21T00:36:48;7.20;99.90
22321;DHT22;11328;53.928;18.522;2024-02-21T00:39:17;7.20;99.90
22321;DHT22;11328;53.928;18.522;2024-02-21T00:41:44;7.10;99.90
22321;DHT22;11328;53.928;18.522;2024-02-21T00:44:10;7.00;99.90
22321;DHT22;11328;53.928;18.522;2024-02-21T00:46:38;7.00;99.90
22321;DHT22;11328;53.928;18.522;2024-02-21T00:49:05;7.00;99.90
22321;DHT22;11328;53.928;18.522;2024-02-21T00:51:33;7.00;99.90
22321;DHT22;11328;53.928;18.522;2024-02-21T00:54:00;7.10;99.90
22321;DHT22;11328;53.928;18.522;2024-02-21T00:56:28;7.00;99.90
22321;DHT22;11328;53.928;18.522;2024-02-21T00:58:56;7.00;99.90
22321;DHT22;11328;53.928;18.522;2024-02-21T01:01:24;6.90;99.90
22321;DHT22;11328;53.928;18.522;2024-02-21T01:03:52;7.00;99.90
22321;DHT22;11328;53.928;18.522;2024-02-21T01:06:20;6.80;99.90
22321;DHT22;11328;53.928;18.522;2024-02-21T01:08:48;6.90;99.90
22321;DHT22;11328;53.928;18.522;2024-02-21T01:11:15;6.90;99.90
22321;DHT22;11328;53.928;18.522;2024-02-21T01:13:44;6.90;99.90
22321;DHT22;11328;53.928;18.522;2024-02-21T01:16:11;7.00;99.90
22321;DHT22;11328;53.928;18.522;2024-02-21T01:18:38;7.00;99.90
22321;DHT22;11328;53.928;18.522;2024-02-21T01:21:07;7.00;99.90
22321;DHT22;11328;53.928;18.522;2024-02-21T01:23:35;7.00;99.90
22321;DHT22;11328;53.928;18.522;2024-02-21T01:26:03;7.00;99.90
22321;DHT22;11328;53.928;18.522;2024-02-21T01:28:31;7.00;99.90
22321;DHT22;11328;53.928;18.522;2024-02-21T01:30:58;7.00;99.90
22321;DHT22;11328;53.928;18.522;2024-02-21T01:33:25;7.10;99.90
22321;DHT22;11328;53.928;18.522;2024-02-21T01:35:52;7.10;99.90
22321;DHT22;11328;53.928;18.522;2024-02-21T01:38:20;7.10;99.90
22321;DHT22;11328;53.928;18.522;2024-02-21T01:40:47;7.10;99.90
22321;DHT22;11328;53.928;18.522;2024-02-21T01:43:20;7.20;99.90
22321;DHT22;11328;53.928;18.522;2024-02-21T01:45:53;7.10;99.90
22321;DHT22;11328;53.928;18.522;2024-02-21T01:48:22;7.20;99.90
22321;DHT22;11328;53.928;18.522;2024-02-21T01:50:51;7.20;99.90
22321;DHT22;11328;53.928;18.522;2024-02-21T01:53:23;7.20;99.90
22321;DHT22;11328;53.928;18.522;2024-02-21T01:55:54;7.20;99.90
22321;DHT22;11328;53.928;18.522;2024-02-21T01:58:22;7.30;99.90
22321;DHT22;11328;53.928;18.522;2024-02-21T02:00:50;7.30;99.90
22321;DHT22;11328;53.928;18.522;2024-02-21T02:03:18;7.20;99.90
22321;DHT22;11328;53.928;18.522;2024-02-21T02:05:46;7.20;99.90
22321;DHT22;11328;53.928;18.522;2024-02-21T02:08:15;7.20;99.90
22321;DHT22;11328;53.928;18.522;2024-02-21T02:10:43;7.30;99.90
22321;DHT22;11328;53.928;18.522;2024-02-21T02:13:11;7.20;99.90
22321;DHT22;11328;53.928;18.522;2024-02-21T02:15:49;7.20;99.90
22321;DHT22;11328;53.928;18.522;2024-02-21T02:18:17;7.20;99.90
22321;DHT22;11328;53.928;18.522;2024-02-21T02:20:46;7.30;99.90
22321;DHT22;11328;53.928;18.522;2024-02-21T02:23:27;7.30;99.90
22321;DHT22;11328;53.928;18.522;2024-02-21T02:25:55;7.30;99.90
22321;DHT22;11328;53.928;18.522;2024-02-21T02:28:23;7.30;99.90
22321;DHT22;11328;53.928;18.522;2024-02-21T02:30:50;7.30;99.90
22321;DHT22;11328;53.928;18.522;2024-02-21T02:33:17;7.40;99.90
22321;DHT22;11328;53.928;18.522;2024-02-21T02:35:45;7.40;99.90
22321;DHT22;11328;53.928;18.522;2024-02-21T02:38:13;7.50;99.90
22321;DHT22;11328;53.928;18.522;2024-02-21T02:40:41;7.50;99.90
22321;DHT22;11328;53.928;18.522;2024-02-21T02:43:09;7.50;99.90
22321;DHT22;11328;53.928;18.522;2024-02-21T02:45:36;7.50;99.90
22321;DHT22;11328;53.928;18.522;2024-02-21T02:48:03;7.40;99.90
22321;DHT22;11328;53.928;18.522;2024-02-21T02:50:31;7.40;99.90
22321;DHT22;11328;53.928;18.522;2024-02-21T02:52:58;7.50;99.90
22321;DHT22;11328;53.928;18.522;2024-02-21T02:55:26;7.50;99.90
22321;DHT22;11328;53.928;18.522;2024-02-21T02:57:54;7.50;99.90
22321;DHT22;11328;53.928;18.522;2024-02-21T03:00:22;7.50;99.90
22321;DHT22;11328;53.928;18.522;2024-02-21T03:02:50;7.60;99.90
22321;DHT22;11328;53.928;18.522;2024-02-21T03:05:19;7.50;99.90
22321;DHT22;11328;53.928;18.522;2024-02-21T03:07:48;7.50;99.90
22321;DHT22;11328;53.928;18.522;2024-02-21T03:10:16;7.50;99.90
22321;DHT22;11328;53.928;18.522;2024-02-21T03:12:46;7.50;99.90
22321;DHT22;11328;53.928;18.522;2024-02-21T03:15:14;7.50;99.90
22321;DHT22;11328;53.928;18.522;2024-02-21T03:17:41;7.50;99.90
22321;DHT22;11328;53.928;18.522;2024-02-21T03:20:09;7.50;99.90
22321;DHT22;11328;53.928;18.522;2024-02-21T03:22:39;7.40;99.90
22321;DHT22;11328;53.928;18.522;2024-02-21T03:25:08;7.40;99.90
22321;DHT22;11328;53.928;18.522;2024-02-21T03:27:37;7.40;99.90
22321;DHT22;11328;53.928;18.522;2024-02-21T03:30:05;7.40;99.90
22321;DHT22;11328;53.928;18.522;2024-02-21T03:32:32;7.40;99.90
22321;DHT22;11328;53.928;18.522;2024-02-21T03:34:59;7.40;99.90
22321;DHT22;11328;53.928;18.522;2024-02-21T03:37:26;7.30;99.90
22321;DHT22;11328;53.928;18.522;2024-02-21T03:39:53;7.30;99.90
22321;DHT22;11328;53.928;18.522;2024-02-21T03:42:20;7.30;99.90
22321;DHT22;11328;53.928;18.522;2024-02-21T03:44:47;7.30;99.90
22321;DHT22;11328;53.928;18.522;2024-02-21T03:47:14;7.30;99.90
22321;DHT22;11328;53.928;18.522;2024-02-21T03:49:41;7.30;99.90
22321;DHT22;11328;53.928;18.522;2024-02-21T03:52:09;7.30;99.90
22321;DHT22;11328;53.928;18.522;2024-02-21T03:54:37;7.50;99.90
22321;DHT22;11328;53.928;18.522;2024-02-21T03:57:05;7.40;99.90
22321;DHT22;11328;53.928;18.522;2024-02-21T03:59:33;7.40;99.90
22321;DHT22;11328;53.928;18.522;2024-02-21T04:02:00;7.40;99.90
22321;DHT22;11328;53.928;18.522;2024-02-21T04:04:27;7.40;99.90
22321;DHT22;11328;53.928;18.522;2024-02-21T04:06:54;7.40;99.90
22321;DHT22;11328;53.928;18.522;2024-02-21T04:09:21;7.40;99.90
22321;DHT22;11328;53.928;18.522;2024-02-21T04:11:48;7.40;99.90
22321;DHT22;11328;53.928;18.522;2024-02-21T04:14:17;7.40;99.90
22321;DHT22;11328;53.928;18.522;2024-02-21T04:16:44;7.40;99.90
22321;DHT22;11328;53.928;18.522;2024-02-21T04:19:11;7.50;99.90
22321;DHT22;11328;53.928;18.522;2024-02-21T04:21:38;7.50;99.90
22321;DHT22;11328;53.928;18.522;2024-02-21T04:24:05;7.50;99.90
22321;DHT22;11328;53.928;18.522;2024-02-21T04:26:33;7.40;99.90
22321;DHT22;11328;53.928;18.522;2024-02-21T04:29:01;7.40;99.90
22321;DHT22;11328;53.928;18.522;2024-02-21T04:31:29;7.40;99.90
22321;DHT22;11328;53.928;18.522;2024-02-21T04:33:56;7.40;99.90
22321;DHT22;11328;53.928;18.522;2024-02-21T04:36:23;7.40;99.90
22321;DHT22;11328;53.928;18.522;2024-02-21T04:38:51;7.40;99.90
22321;DHT22;11328;53.928;18.522;2024-02-21T04:41:18;7.40;99.90
22321;DHT22;11328;53.928;18.522;2024-02-21T04:43:48;7.40;99.90
22321;DHT22;11328;53.928;18.522;2024-02-21T04:46:16;7.40;99.90
22321;DHT22;11328;53.928;18.522;2024-02-21T04:48:43;7.30;99.90
22321;DHT22;11328;53.928;18.522;2024-02-21T04:51:12;7.40;99.90
22321;DHT22;11328;53.928;18.522;2024-02-21T04:53:40;7.40;99.90
22321;DHT22;11328;53.928;18.522;2024-02-21T04:56:07;7.40;99.90
22321;DHT22;11328;53.928;18.522;2024-02-21T04:58:38;7.50;99.90
22321;DHT22;11328;53.928;18.522;2024-02-21T05:01:06;7.50;99.90
22321;DHT22;11328;53.928;18.522;2024-02-21T05:03:34;7.50;99.90
22321;DHT22;11328;53.928;18.522;2024-02-21T05:06:02;7.50;99.90
22321;DHT22;11328;53.928;18.522;2024-02-21T05:08:29;7.50;99.90
22321;DHT22;11328;53.928;18.522;2024-02-21T05:10:56;7.60;99.90
22321;DHT22;11328;53.928;18.522;2024-02-21T05:13:23;7.60;99.90
22321;DHT22;11328;53.928;18.522;2024-02-21T05:15:50;7.60;99.90
22321;DHT22;11328;53.928;18.522;2024-02-21T05:18:17;7.70;99.90
22321;DHT22;11328;53.928;18.522;2024-02-21T05:20:44;7.70;99.90
22321;DHT22;11328;53.928;18.522;2024-02-21T05:23:11;7.70;99.90
22321;DHT22;11328;53.928;18.522;2024-02-21T05:25:38;7.70;99.90
22321;DHT22;11328;53.928;18.522;2024-02-21T05:28:05;7.70;99.90
22321;DHT22;11328;53.928;18.522;2024-02-21T05:30:33;7.70;99.90
22321;DHT22;11328;53.928;18.522;2024-02-21T05:33:06;7.70;99.90
22321;DHT22;11328;53.928;18.522;2024-02-21T05:35:34;7.80;99.90
22321;DHT22;11328;53.928;18.522;2024-02-21T05:38:03;7.80;99.90
22321;DHT22;11328;53.928;18.522;2024-02-21T05:40:38;7.80;99.90
22321;DHT22;11328;53.928;18.522;2024-02-21T05:43:07;7.80;99.90
22321;DHT22;11328;53.928;18.522;2024-02-21T05:45:34;7.80;99.90
22321;DHT22;11328;53.928;18.522;2024-02-21T05:48:02;7.80;99.90
22321;DHT22;11328;53.928;18.522;2024-02-21T05:50:30;7.80;99.90
22321;DHT22;11328;53.928;18.522;2024-02-21T05:52:57;7.80;99.90
22321;DHT22;11328;53.928;18.522;2024-02-21T05:55:24;7.80;99.90
22321;DHT22;11328;53.928;18.522;2024-02-21T05:57:53;7.80;99.90
22321;DHT22;11328;53.928;18.522;2024-02-21T06:00:22;7.70;99.90
22321;DHT22;11328;53.928;18.522;2024-02-21T06:02:48;7.70;99.90
22321;DHT22;11328;53.928;18.522;2024-02-21T06:05:16;7.70;99.90
22321;DHT22;11328;53.928;18.522;2024-02-21T06:07:43;7.80;99.90
22321;DHT22;11328;53.928;18.522;2024-02-21T06:10:11;7.80;99.90
22321;DHT22;11328;53.928;18.522;2024-02-21T06:12:38;7.80;99.90
22321;DHT22;11328;53.928;18.522;2024-02-21T06:15:05;7.80;99.90
22321;DHT22;11328;53.928;18.522;2024-02-21T06:17:33;7.80;99.90
22321;DHT22;11328;53.928;18.522;2024-02-21T06:20:00;7.90;99.90
22321;DHT22;11328;53.928;18.522;2024-02-21T06:22:27;7.90;99.90
22321;DHT22;11328;53.928;18.522;2024-02-21T06:24:54;7.80;99.90
22321;DHT22;11328;53.928;18.522;2024-02-21T06:27:21;7.90;99.90
22321;DHT22;11328;53.928;18.522;2024-02-21T06:29:48;7.90;99.90
22321;DHT22;11328;53.928;18.522;2024-02-21T06:32:15;7.90;99.90
22321;DHT22;11328;53.928;18.522;2024-02-21T06:34:42;7.90;99.90
22321;DHT22;11328;53.928;18.522;2024-02-21T06:37:10;7.90;99.90
22321;DHT22;11328;53.928;18.522;2024-02-21T06:39:37;7.90;99.90
22321;DHT22;11328;53.928;18.522;2024-02-21T06:42:04;7.90;99.90
22321;DHT22;11328;53.928;18.522;2024-02-21T06:44:31;7.90;99.90
22321;DHT22;11328;53.928;18.522;2024-02-21T06:47:03;7.90;99.90
22321;DHT22;11328;53.928;18.522;2024-02-21T06:49:30;7.90;99.90
22321;DHT22;11328;53.928;18.522;2024-02-21T06:51:57;7.80;99.90
22321;DHT22;11328;53.928;18.522;2024-02-21T06:54:24;7.80;99.90
22321;DHT22;11328;53.928;18.522;2024-02-21T06:56:51;7.80;99.90
22321;DHT22;11328;53.928;18.522;2024-02-21T06:59:18;7.80;99.90
22321;DHT22;11328;53.928;18.522;2024-02-21T07:01:47;7.60;99.90
22321;DHT22;11328;53.928;18.522;2024-02-21T07:04:15;7.70;99.90
22321;DHT22;11328;53.928;18.522;2024-02-21T07:06:42;7.80;99.90
22321;DHT22;11328;53.928;18.522;2024-02-21T07:09:10;7.80;99.90
22321;DHT22;11328;53.928;18.522;2024-02-21T07:11:37;7.80;99.90
22321;DHT22;11328;53.928;18.522;2024-02-21T07:14:04;7.80;99.90
22321;DHT22;11328;53.928;18.522;2024-02-21T07:16:31;7.80;99.90
22321;DHT22;11328;53.928;18.522;2024-02-21T07:19:00;7.80;99.90
22321;DHT22;11328;53.928;18.522;2024-02-21T07:21:27;7.80;99.90
22321;DHT22;11328;53.928;18.522;2024-02-21T07:23:54;7.80;99.90
22321;DHT22;11328;53.928;18.522;2024-02-21T07:26:21;7.90;99.90
22321;DHT22;11328;53.928;18.522;2024-02-21T07:28:49;7.80;99.90
22321;DHT22;11328;53.928;18.522;2024-02-21T07:31:16;7.90;99.90
22321;DHT22;11328;53.928;18.522;2024-02-21T07:33:46;7.80;99.90
22321;DHT22;11328;53.928;18.522;2024-02-21T07:36:15;7.80;99.90
22321;DHT22;11328;53.928;18.522;2024-02-21T07:38:50;7.80;99.90
22321;DHT22;11328;53.928;18.522;2024-02-21T07:41:18;7.80;99.90
22321;DHT22;11328;53.928;18.522;2024-02-21T07:43:45;7.90;99.90
22321;DHT22;11328;53.928;18.522;2024-02-21T07:46:12;7.80;99.90
22321;DHT22;11328;53.928;18.522;2024-02-21T07:48:39;7.80;99.90
22321;DHT22;11328;53.928;18.522;2024-02-21T07:51:06;7.80;99.90
22321;DHT22;11328;53.928;18.522;2024-02-21T07:53:33;7.80;99.90
22321;DHT22;11328;53.928;18.522;2024-02-21T07:56:00;7.80;99.90
22321;DHT22;11328;53.928;18.522;2024-02-21T07:58:27;7.80;99.90
22321;DHT22;11328;53.928;18.522;2024-02-21T08:00:54;7.80;99.90
22321;DHT22;11328;53.928;18.522;2024-02-21T08:03:21;7.80;99.90
22321;DHT22;11328;53.928;18.522;2024-02-21T08:05:49;7.80;99.90
22321;DHT22;11328;53.928;18.522;2024-02-21T08:08:16;7.80;99.90
22321;DHT22;11328;53.928;18.522;2024-02-21T08:10:46;7.90;99.90
22321;DHT22;11328;53.928;18.522;2024-02-21T08:13:13;7.90;99.90
22321;DHT22;11328;53.928;18.522;2024-02-21T08:15:41;7.90;99.90
22321;DHT22;11328;53.928;18.522;2024-02-21T08:18:08;8.00;99.90
22321;DHT22;11328;53.928;18.522;2024-02-21T08:20:36;8.00;99.90
22321;DHT22;11328;53.928;18.522;2024-02-21T08:23:03;8.00;99.90
22321;DHT22;11328;53.928;18.522;2024-02-21T08:25:30;8.00;99.90
22321;DHT22;11328;53.928;18.522;2024-02-21T08:27:58;8.00;99.90
22321;DHT22;11328;53.928;18.522;2024-02-21T08:30:26;8.10;99.90
22321;DHT22;11328;53.928;18.522;2024-02-21T08:32:54;8.10;99.90
22321;DHT22;11328;53.928;18.522;2024-02-21T08:35:21;8.10;99.90
22321;DHT22;11328;53.928;18.522;2024-02-21T08:37:49;8.10;99.90
22321;DHT22;11328;53.928;18.522;2024-02-21T08:40:16;8.00;99.90
22321;DHT22;11328;53.928;18.522;2024-02-21T08:42:48;8.10;99.90
22321;DHT22;11328;53.928;18.522;2024-02-21T08:45:16;8.10;99.90
22321;DHT22;11328;53.928;18.522;2024-02-21T08:47:43;8.10;99.90
22321;DHT22;11328;53.928;18.522;2024-02-21T08:50:11;8.10;99.90
22321;DHT22;11328;53.928;18.522;2024-02-21T08:52:53;8.00;99.90
22321;DHT22;11328;53.928;18.522;2024-02-21T08:55:21;8.10;99.90
22321;DHT22;11328;53.928;18.522;2024-02-21T08:57:48;8.00;99.90
22321;DHT22;11328;53.928;18.522;2024-02-21T09:00:16;8.10;99.90
22321;DHT22;11328;53.928;18.522;2024-02-21T09:02:43;8.10;99.90
22321;DHT22;11328;53.928;18.522;2024-02-21T09:05:11;8.10;99.90
22321;DHT22;11328;53.928;18.522;2024-02-21T09:07:38;8.10;99.90
22321;DHT22;11328;53.928;18.522;2024-02-21T09:10:06;8.10;99.90
22321;DHT22;11328;53.928;18.522;2024-02-21T09:12:33;8.10;99.90
22321;DHT22;11328;53.928;18.522;2024-02-21T09:15:00;8.00;99.90
22321;DHT22;11328;53.928;18.522;2024-02-21T09:17:27;8.00;99.90
22321;DHT22;11328;53.928;18.522;2024-02-21T09:19:56;8.10;99.90
22321;DHT22;11328;53.928;18.522;2024-02-21T09:22:26;8.00;99.90
22321;DHT22;11328;53.928;18.522;2024-02-21T09:24:53;8.10;99.90
22321;DHT22;11328;53.928;18.522;2024-02-21T09:27:21;8.00;99.90
22321;DHT22;11328;53.928;18.522;2024-02-21T09:29:49;8.10;99.90
22321;DHT22;11328;53.928;18.522;2024-02-21T09:32:16;8.10;99.90
22321;DHT22;11328;53.928;18.522;2024-02-21T09:34:44;8.10;99.90
22321;DHT22;11328;53.928;18.522;2024-02-21T09:37:12;8.00;99.90
22321;DHT22;11328;53.928;18.522;2024-02-21T09:39:39;8.00;99.90
22321;DHT22;11328;53.928;18.522;2024-02-21T09:42:06;7.90;99.90
22321;DHT22;11328;53.928;18.522;2024-02-21T09:44:37;7.90;99.90
22321;DHT22;11328;53.928;18.522;2024-02-21T09:47:10;7.90;99.90
22321;DHT22;11328;53.928;18.522;2024-02-21T09:49:44;7.90;99.90
22321;DHT22;11328;53.928;18.522;2024-02-21T09:52:13;8.00;99.90
22321;DHT22;11328;53.928;18.522;2024-02-21T09:54:42;8.00;99.90
22321;DHT22;11328;53.928;18.522;2024-02-21T09:57:11;7.90;99.90
22321;DHT22;11328;53.928;18.522;2024-02-21T09:59:40;7.90;99.90
22321;DHT22;11328;53.928;18.522;2024-02-21T10:02:08;8.00;99.90
22321;DHT22;11328;53.928;18.522;2024-02-21T10:04:36;8.00;99.90
22321;DHT22;11328;53.928;18.522;2024-02-21T10:07:03;8.00;99.90
22321;DHT22;11328;53.928;18.522;2024-02-21T10:09:31;8.00;99.90
22321;DHT22;11328;53.928;18.522;2024-02-21T10:12:10;8.00;99.90
22321;DHT22;11328;53.928;18.522;2024-02-21T10:14:40;8.00;99.90
22321;DHT22;11328;53.928;18.522;2024-02-21T10:17:07;8.00;99.90
22321;DHT22;11328;53.928;18.522;2024-02-21T10:19:38;8.00;99.90
22321;DHT22;11328;53.928;18.522;2024-02-21T10:22:08;8.00;99.90
22321;DHT22;11328;53.928;18.522;2024-02-21T10:24:37;8.10;99.90
22321;DHT22;11328;53.928;18.522;2024-02-21T10:27:10;8.20;99.90
22321;DHT22;11328;53.928;18.522;2024-02-21T10:29:39;8.20;99.90
22321;DHT22;11328;53.928;18.522;2024-02-21T10:32:07;8.30;99.90
22321;DHT22;11328;53.928;18.522;2024-02-21T10:34:41;8.30;99.90
22321;DHT22;11328;53.928;18.522;2024-02-21T10:37:11;8.30;99.90
22321;DHT22;11328;53.928;18.522;2024-02-21T10:39:40;8.30;99.90
22321;DHT22;11328;53.928;18.522;2024-02-21T10:42:11;8.30;99.90
22321;DHT22;11328;53.928;18.522;2024-02-21T10:44:40;8.30;99.90
22321;DHT22;11328;53.928;18.522;2024-02-21T10:47:10;8.30;99.90
22321;DHT22;11328;53.928;18.522;2024-02-21T10:49:40;8.40;99.90
22321;DHT22;11328;53.928;18.522;2024-02-21T10:52:17;8.30;99.90
22321;DHT22;11328;53.928;18.522;2024-02-21T10:57:19;8.20;99.90
22321;DHT22;11328;53.928;18.522;2024-02-21T10:59:49;8.20;99.90
22321;DHT22;11328;53.928;18.522;2024-02-21T11:02:17;8.20;99.90
22321;DHT22;11328;53.928;18.522;2024-02-21T11:04:45;8.20;99.90
22321;DHT22;11328;53.928;18.522;2024-02-21T11:07:15;8.30;99.90
22321;DHT22;11328;53.928;18.522;2024-02-21T11:09:51;8.30;99.90
22321;DHT22;11328;53.928;18.522;2024-02-21T11:12:23;8.40;99.90
22321;DHT22;11328;53.928;18.522;2024-02-21T11:14:52;8.30;99.90
22321;DHT22;11328;53.928;18.522;2024-02-21T11:17:20;8.30;99.90
22321;DHT22;11328;53.928;18.522;2024-02-21T11:19:55;8.40;99.90
22321;DHT22;11328;53.928;18.522;2024-02-21T11:22:22;8.40;99.90
22321;DHT22;11328;53.928;18.522;2024-02-21T11:24:51;8.50;99.90
22321;DHT22;11328;53.928;18.522;2024-02-21T11:27:21;8.40;99.90
22321;DHT22;11328;53.928;18.522;2024-02-21T11:29:58;8.40;99.90
22321;DHT22;11328;53.928;18.522;2024-02-21T11:32:26;8.40;99.90
22321;DHT22;11328;53.928;18.522;2024-02-21T11:37:32;8.40;99.90
22321;DHT22;11328;53.928;18.522;2024-02-21T11:40:01;8.50;99.90
22321;DHT22;11328;53.928;18.522;2024-02-21T11:42:30;8.50;99.90
22321;DHT22;11328;53.928;18.522;2024-02-21T11:44:58;8.30;99.90
22321;DHT22;11328;53.928;18.522;2024-02-21T11:47:28;8.40;99.90
22321;DHT22;11328;53.928;18.522;2024-02-21T11:49:56;8.30;99.90
22321;DHT22;11328;53.928;18.522;2024-02-21T11:52:26;8.30;99.90
22321;DHT22;11328;53.928;18.522;2024-02-21T11:54:55;8.20;99.90
22321;DHT22;11328;53.928;18.522;2024-02-21T11:57:31;8.30;99.90
22321;DHT22;11328;53.928;18.522;2024-02-21T11:59:58;8.40;99.90
22321;DHT22;11328;53.928;18.522;2024-02-21T12:02:30;8.50;99.90
22321;DHT22;11328;53.928;18.522;2024-02-21T12:04:58;8.40;99.90
22321;DHT22;11328;53.928;18.522;2024-02-21T12:07:26;8.60;99.90
22321;DHT22;11328;53.928;18.522;2024-02-21T12:09:59;8.60;99.90
22321;DHT22;11328;53.928;18.522;2024-02-21T12:12:27;8.70;99.90
22321;DHT22;11328;53.928;18.522;2024-02-21T12:14:56;8.80;99.90
22321;DHT22;11328;53.928;18.522;2024-02-21T12:17:26;8.90;99.90
22321;DHT22;11328;53.928;18.522;2024-02-21T12:19:53;8.90;99.90
22321;DHT22;11328;53.928;18.522;2024-02-21T12:22:20;8.80;99.90
22321;DHT22;11328;53.928;18.522;2024-02-21T12:24:47;8.80;99.90
22321;DHT22;11328;53.928;18.522;2024-02-21T12:27:15;8.90;99.90
22321;DHT22;11328;53.928;18.522;2024-02-21T12:29:42;8.90;99.90
22321;DHT22;11328;53.928;18.522;2024-02-21T12:32:10;8.90;99.90
22321;DHT22;11328;53.928;18.522;2024-02-21T12:34:37;8.90;99.90
22321;DHT22;11328;53.928;18.522;2024-02-21T12:37:21;8.90;99.90
22321;DHT22;11328;53.928;18.522;2024-02-21T12:39:51;8.90;99.90
22321;DHT22;11328;53.928;18.522;2024-02-21T12:42:19;8.80;99.90
22321;DHT22;11328;53.928;18.522;2024-02-21T12:44:46;8.90;99.90
22321;DHT22;11328;53.928;18.522;2024-02-21T12:47:15;8.90;99.90
22321;DHT22;11328;53.928;18.522;2024-02-21T12:49:42;8.90;99.90
22321;DHT22;11328;53.928;18.522;2024-02-21T12:52:12;8.90;99.90
22321;DHT22;11328;53.928;18.522;2024-02-21T12:54:40;8.90;99.90
22321;DHT22;11328;53.928;18.522;2024-02-21T12:57:08;8.90;99.90
22321;DHT22;11328;53.928;18.522;2024-02-21T12:59:37;8.90;99.90
22321;DHT22;11328;53.928;18.522;2024-02-21T13:02:04;8.90;99.90
22321;DHT22;11328;53.928;18.522;2024-02-21T13:04:31;9.00;99.90
22321;DHT22;11328;53.928;18.522;2024-02-21T13:06:58;9.00;99.90
22321;DHT22;11328;53.928;18.522;2024-02-21T13:09:25;9.10;99.90
22321;DHT22;11328;53.928;18.522;2024-02-21T13:11:53;9.20;99.90
22321;DHT22;11328;53.928;18.522;2024-02-21T13:14:20;9.20;99.90
22321;DHT22;11328;53.928;18.522;2024-02-21T13:16:51;9.30;99.90
22321;DHT22;11328;53.928;18.522;2024-02-21T13:19:18;9.30;99.90
22321;DHT22;11328;53.928;18.522;2024-02-21T13:21:47;9.40;99.90
22321;DHT22;11328;53.928;18.522;2024-02-21T13:24:15;9.40;99.90
22321;DHT22;11328;53.928;18.522;2024-02-21T13:26:42;9.50;99.90
22321;DHT22;11328;53.928;18.522;2024-02-21T13:29:09;9.50;99.90
22321;DHT22;11328;53.928;18.522;2024-02-21T13:31:36;9.40;99.90
22321;DHT22;11328;53.928;18.522;2024-02-21T13:34:04;9.50;99.90
22321;DHT22;11328;53.928;18.522;2024-02-21T13:36:33;9.60;99.90
22321;DHT22;11328;53.928;18.522;2024-02-21T13:39:00;9.60;99.90
22321;DHT22;11328;53.928;18.522;2024-02-21T13:41:28;9.60;99.90
22321;DHT22;11328;53.928;18.522;2024-02-21T13:43:56;9.70;99.90
22321;DHT22;11328;53.928;18.522;2024-02-21T13:46:26;9.60;99.90
22321;DHT22;11328;53.928;18.522;2024-02-21T13:49:03;9.50;99.90
22321;DHT22;11328;53.928;18.522;2024-02-21T13:51:36;9.50;99.90
22321;DHT22;11328;53.928;18.522;2024-02-21T13:54:04;9.50;99.90
22321;DHT22;11328;53.928;18.522;2024-02-21T13:56:31;9.50;99.90
22321;DHT22;11328;53.928;18.522;2024-02-21T13:59:00;9.60;99.90
22321;DHT22;11328;53.928;18.522;2024-02-21T14:01:27;9.50;99.90
22321;DHT22;11328;53.928;18.522;2024-02-21T14:03:55;9.60;99.90
22321;DHT22;11328;53.928;18.522;2024-02-21T14:06:22;9.50;99.90
22321;DHT22;11328;53.928;18.522;2024-02-21T14:08:49;9.50;99.90
22321;DHT22;11328;53.928;18.522;2024-02-21T14:11:19;9.50;99.90
22321;DHT22;11328;53.928;18.522;2024-02-21T14:13:46;9.60;99.90
22321;DHT22;11328;53.928;18.522;2024-02-21T14:16:13;9.50;99.90
22321;DHT22;11328;53.928;18.522;2024-02-21T14:18:40;9.50;99.90
22321;DHT22;11328;53.928;18.522;2024-02-21T14:21:11;9.50;99.90
22321;DHT22;11328;53.928;18.522;2024-02-21T14:23:38;9.50;99.90
22321;DHT22;11328;53.928;18.522;2024-02-21T14:26:06;9.50;99.90
22321;DHT22;11328;53.928;18.522;2024-02-21T14:28:33;9.60;99.90
22321;DHT22;11328;53.928;18.522;2024-02-21T14:31:00;9.50;99.90
22321;DHT22;11328;53.928;18.522;2024-02-21T14:33:28;9.40;99.90
22321;DHT22;11328;53.928;18.522;2024-02-21T14:35:56;9.50;99.90
22321;DHT22;11328;53.928;18.522;2024-02-21T14:38:23;9.50;99.90
22321;DHT22;11328;53.928;18.522;2024-02-21T14:40:50;9.60;99.90
22321;DHT22;11328;53.928;18.522;2024-02-21T14:43:18;9.60;99.90
22321;DHT22;11328;53.928;18.522;2024-02-21T14:45:48;9.60;99.90
22321;DHT22;11328;53.928;18.522;2024-02-21T14:48:15;9.50;99.90
22321;DHT22;11328;53.928;18.522;2024-02-21T14:50:43;9.50;99.90
22321;DHT22;11328;53.928;18.522;2024-02-21T14:53:10;9.40;99.90
22321;DHT22;11328;53.928;18.522;2024-02-21T14:55:38;9.30;99.90
22321;DHT22;11328;53.928;18.522;2024-02-21T14:58:09;9.40;99.90
22321;DHT22;11328;53.928;18.522;2024-02-21T15:00:36;9.20;99.90
22321;DHT22;11328;53.928;18.522;2024-02-21T15:03:03;9.20;99.90
22321;DHT22;11328;53.928;18.522;2024-02-21T15:05:31;9.20;99.90
22321;DHT22;11328;53.928;18.522;2024-02-21T15:08:03;9.20;99.90
22321;DHT22;11328;53.928;18.522;2024-02-21T15:10:30;9.30;99.90
22321;DHT22;11328;53.928;18.522;2024-02-21T15:12:57;9.30;99.90
22321;DHT22;11328;53.928;18.522;2024-02-21T15:15:24;9.30;99.90
22321;DHT22;11328;53.928;18.522;2024-02-21T15:17:51;9.30;99.90
22321;DHT22;11328;53.928;18.522;2024-02-21T15:20:20;9.30;99.90
22321;DHT22;11328;53.928;18.522;2024-02-21T15:22:48;9.20;99.90
22321;DHT22;11328;53.928;18.522;2024-02-21T15:25:15;9.20;99.90
22321;DHT22;11328;53.928;18.522;2024-02-21T15:27:45;9.20;99.90
22321;DHT22;11328;53.928;18.522;2024-02-21T15:30:13;9.10;99.90
22321;DHT22;11328;53.928;18.522;2024-02-21T15:32:41;9.10;99.90
22321;DHT22;11328;53.928;18.522;2024-02-21T15:35:12;9.10;99.90
22321;DHT22;11328;53.928;18.522;2024-02-21T15:37:40;9.00;99.90
22321;DHT22;11328;53.928;18.522;2024-02-21T15:40:07;9.10;99.90